createdAt,value
2018-06-12T00:01:06.473Z,2.70
2018-06-12T00:03:35.200Z,2.50
2018-06-12T00:06:03.936Z,2.97
2018-06-12T00:08:33.780Z,2.90
2018-06-12T00:11:06.777Z,3.90
2018-06-12T00:13:36.387Z,2.60
2018-06-12T00:16:05.070Z,2.87
2018-06-12T00:18:33.747Z,4.30
2018-06-12T00:21:02.434Z,1.60
2018-06-12T00:23:31.121Z,2.73
2018-06-12T00:25:59.830Z,2.27
2018-06-12T00:28:28.536Z,2.00
2018-06-12T00:30:57.290Z,2.70
2018-06-12T00:33:26.074Z,2.53
2018-06-12T00:35:54.851Z,2.37
2018-06-12T00:38:23.543Z,2.20
2018-06-12T00:40:52.261Z,3.33
2018-06-12T00:43:20.943Z,2.37
2018-06-12T00:45:49.638Z,2.20
2018-06-12T00:48:18.310Z,1.93
2018-06-12T00:50:46.991Z,1.87
2018-06-12T00:53:16.137Z,2.57
2018-06-12T00:55:44.854Z,2.60
2018-06-12T00:58:13.573Z,2.23
2018-06-12T01:00:42.202Z,2.47
2018-06-12T01:03:10.914Z,2.30
2018-06-12T01:05:39.608Z,2.33
2018-06-12T01:08:08.347Z,2.60
2018-06-12T01:10:37.005Z,2.43
2018-06-12T01:13:05.666Z,2.60
2018-06-12T01:15:34.342Z,2.00
2018-06-12T01:18:03.029Z,1.70
2018-06-12T01:20:31.741Z,2.10
2018-06-12T01:23:00.387Z,2.23
2018-06-12T01:25:29.065Z,1.87
2018-06-12T01:27:57.776Z,1.97
2018-06-12T01:30:26.492Z,2.77
2018-06-12T01:32:55.182Z,2.60
2018-06-12T01:35:23.891Z,2.00
2018-06-12T01:37:52.631Z,2.30
2018-06-12T01:40:21.306Z,2.00
2018-06-12T01:42:50.029Z,2.70
2018-06-12T01:45:18.663Z,1.70
2018-06-12T01:47:47.381Z,2.40
2018-06-12T01:50:16.081Z,2.00
2018-06-12T01:52:45.463Z,1.53
2018-06-12T01:55:14.182Z,2.07
2018-06-12T01:57:42.842Z,1.93
2018-06-12T02:00:11.487Z,2.17
2018-06-12T02:02:40.150Z,2.13
2018-06-12T02:05:08.893Z,2.53
2018-06-12T02:07:37.583Z,2.37
2018-06-12T02:10:06.274Z,2.80
2018-06-12T02:12:35.061Z,2.03
2018-06-12T02:15:03.749Z,2.60
2018-06-12T02:17:32.431Z,1.60
2018-06-12T02:20:01.121Z,2.07
2018-06-12T02:22:29.776Z,2.13
2018-06-12T02:24:59.101Z,2.17
2018-06-12T02:27:28.153Z,2.13
2018-06-12T02:29:56.846Z,2.10
2018-06-12T02:32:25.543Z,1.97
2018-06-12T02:34:54.207Z,2.23
2018-06-12T02:37:22.879Z,1.90
2018-06-12T02:39:51.549Z,2.50
2018-06-12T02:42:20.203Z,1.93
2018-06-12T02:44:48.928Z,1.80
2018-06-12T02:47:17.683Z,1.73
2018-06-12T02:49:46.395Z,2.20
2018-06-12T02:52:15.078Z,1.83
2018-06-12T02:54:43.773Z,2.40
2018-06-12T02:57:12.455Z,2.20
2018-06-12T02:59:41.160Z,2.97
2018-06-12T03:02:09.847Z,2.33
2018-06-12T03:04:38.515Z,1.97
2018-06-12T03:07:07.197Z,2.10
2018-06-12T03:09:35.853Z,1.90
2018-06-12T03:12:04.538Z,2.00
2018-06-12T03:14:33.288Z,1.73
2018-06-12T03:17:02.337Z,2.20
2018-06-12T03:19:31.054Z,1.70
2018-06-12T03:21:59.763Z,2.27
2018-06-12T03:24:28.507Z,2.43
2018-06-12T03:26:57.196Z,2.07
2018-06-12T03:29:25.919Z,2.13
2018-06-12T03:31:54.536Z,2.43
2018-06-12T03:34:23.283Z,2.30
2018-06-12T03:36:52.016Z,2.10
2018-06-12T03:39:20.716Z,1.90
2018-06-12T03:41:49.403Z,3.00
2018-06-12T03:44:18.099Z,3.17
2018-06-12T03:46:46.775Z,2.27
2018-06-12T03:49:15.460Z,2.10
2018-06-12T03:51:44.140Z,2.50
2018-06-12T03:54:12.846Z,2.80
2018-06-12T03:56:41.615Z,2.73
2018-06-12T03:59:10.230Z,1.93
2018-06-12T04:01:38.950Z,2.00
2018-06-12T04:04:07.762Z,2.33
2018-06-12T04:06:37.844Z,2.00
2018-06-12T04:09:08.143Z,2.33
2018-06-12T04:11:37.609Z,2.40
2018-06-12T04:14:06.411Z,2.60
2018-06-12T04:16:37.246Z,2.47
2018-06-12T04:19:07.258Z,2.60
2018-06-12T04:21:36.387Z,2.10
2018-06-12T04:24:05.103Z,2.53
2018-06-12T04:26:33.905Z,2.17
2018-06-12T04:29:02.588Z,2.33
2018-06-12T04:31:31.235Z,2.20
2018-06-12T04:34:00.160Z,3.30
2018-06-12T04:36:28.885Z,2.27
2018-06-12T04:38:58.248Z,2.80
2018-06-12T04:41:26.993Z,2.00
2018-06-12T04:43:55.691Z,2.77
2018-06-12T04:46:24.538Z,2.10
2018-06-12T04:48:53.197Z,2.73
2018-06-12T04:51:21.895Z,2.63
2018-06-12T04:53:50.636Z,2.60
2018-06-12T04:56:19.351Z,2.00
2018-06-12T04:58:48.120Z,2.20
2018-06-12T05:01:16.789Z,2.57
2018-06-12T05:03:45.479Z,2.33
2018-06-12T05:06:14.229Z,2.60
2018-06-12T05:08:43.024Z,2.30
2018-06-12T05:11:11.824Z,2.97
2018-06-12T05:13:40.583Z,2.33
2018-06-12T05:16:09.320Z,3.10
2018-06-12T05:18:38.024Z,2.93
2018-06-12T05:21:06.664Z,2.53
2018-06-12T05:23:35.363Z,2.93
2018-06-12T05:26:04.019Z,3.13
2018-06-12T05:28:34.598Z,2.40
2018-06-12T05:31:03.250Z,3.03
2018-06-12T05:33:31.929Z,2.90
2018-06-12T05:36:00.587Z,3.17
2018-06-12T05:38:29.236Z,2.40
2018-06-12T05:41:00.485Z,2.60
2018-06-12T05:43:29.171Z,2.60
2018-06-12T05:45:57.807Z,2.57
2018-06-12T05:48:26.508Z,2.87
2018-06-12T05:50:55.214Z,2.40
2018-06-12T05:53:23.981Z,2.50
2018-06-12T05:55:52.934Z,3.37
2018-06-12T05:58:21.610Z,2.70
2018-06-12T06:00:50.247Z,3.00
2018-06-12T06:03:18.968Z,2.80
2018-06-12T06:05:47.675Z,2.60
2018-06-12T06:08:16.376Z,4.27
2018-06-12T06:10:45.025Z,2.30
2018-06-12T06:13:13.714Z,2.40
2018-06-12T06:15:42.377Z,2.37
2018-06-12T06:18:11.085Z,2.53
2018-06-12T06:20:39.855Z,2.73
2018-06-12T06:23:09.155Z,2.87
2018-06-12T06:25:37.999Z,3.10
2018-06-12T06:28:06.891Z,2.60
2018-06-12T06:30:36.023Z,2.80
2018-06-12T06:33:05.126Z,2.60
2018-06-12T06:35:33.862Z,3.43
2018-06-12T06:38:02.508Z,3.13
2018-06-12T06:40:31.202Z,3.60
2018-06-12T06:42:59.901Z,2.97
2018-06-12T06:45:28.543Z,3.23
2018-06-12T06:47:57.262Z,3.40
2018-06-12T06:50:25.928Z,3.43
2018-06-12T06:52:54.609Z,3.20
2018-06-12T06:55:23.340Z,3.43
2018-06-12T06:57:51.986Z,2.97
2018-06-12T07:00:20.647Z,2.40
2018-06-12T07:02:49.321Z,2.60
2018-06-12T07:05:18.004Z,3.50
2018-06-12T07:07:46.721Z,3.10
2018-06-12T07:10:15.417Z,3.33
2018-06-12T07:12:44.077Z,3.40
2018-06-12T07:15:12.711Z,3.00
2018-06-12T07:17:41.372Z,3.33
2018-06-12T07:20:10.036Z,3.00
2018-06-12T07:22:38.689Z,3.17
2018-06-12T07:25:07.351Z,3.70
2018-06-12T07:27:36.071Z,3.03
2018-06-12T07:30:04.816Z,2.10
2018-06-12T07:32:33.485Z,2.40
2018-06-12T07:35:02.297Z,3.00
2018-06-12T07:37:31.019Z,2.50
2018-06-12T07:39:59.758Z,2.17
2018-06-12T07:42:28.467Z,2.27
2018-06-12T07:44:57.146Z,2.50
2018-06-12T07:47:25.830Z,2.50
2018-06-12T07:49:54.503Z,2.70
2018-06-12T07:52:23.160Z,2.93
2018-06-12T07:54:51.870Z,2.97
2018-06-12T07:57:20.539Z,3.43
2018-06-12T07:59:49.220Z,2.23
2018-06-12T08:02:17.904Z,2.40
2018-06-12T08:04:46.599Z,2.77
2018-06-12T08:07:15.320Z,3.30
2018-06-12T08:09:43.967Z,3.53
2018-06-12T08:12:12.635Z,2.20
2018-06-12T08:14:41.317Z,2.80
2018-06-12T08:17:10.103Z,2.77
2018-06-12T08:19:38.793Z,2.73
2018-06-12T08:22:07.433Z,3.13
2018-06-12T08:24:36.091Z,4.00
2018-06-12T08:27:04.791Z,2.90
2018-06-12T08:29:33.508Z,2.93
2018-06-12T08:32:02.797Z,2.70
2018-06-12T08:34:31.451Z,3.20
2018-06-12T08:37:00.181Z,2.90
2018-06-12T08:39:29.705Z,3.50
2018-06-12T08:41:58.464Z,3.10
2018-06-12T08:44:27.127Z,3.10
2018-06-12T08:46:55.808Z,3.20
2018-06-12T08:49:24.479Z,3.20
2018-06-12T08:51:53.154Z,2.70
2018-06-12T08:54:21.792Z,3.40
2018-06-12T08:56:50.464Z,3.43
2018-06-12T08:59:19.127Z,2.70
2018-06-12T09:01:47.811Z,3.30
2018-06-12T09:04:16.515Z,2.50
2018-06-12T09:06:45.155Z,3.07
2018-06-12T09:09:13.827Z,2.80
2018-06-12T09:11:42.568Z,2.83
2018-06-12T09:14:11.234Z,2.40
2018-06-12T09:16:39.873Z,3.20
2018-06-12T09:19:08.728Z,2.93
2018-06-12T09:21:37.603Z,3.07
2018-06-12T09:24:06.277Z,3.33
2018-06-12T09:26:34.971Z,2.70
2018-06-12T09:29:03.637Z,3.00
2018-06-12T09:31:32.356Z,2.93
2018-06-12T09:34:00.996Z,3.10
2018-06-12T09:36:33.679Z,2.90
2018-06-12T09:39:04.987Z,2.60
2018-06-12T09:41:33.731Z,2.43
2018-06-12T09:44:02.375Z,3.20
2018-06-12T09:46:30.991Z,2.63
2018-06-12T09:48:59.861Z,2.70
2018-06-12T09:51:30.535Z,3.00
2018-06-12T09:53:59.168Z,2.87
2018-06-12T09:56:27.859Z,2.63
2018-06-12T09:58:56.500Z,2.60
2018-06-12T10:01:25.283Z,2.77
2018-06-12T10:03:54.120Z,3.00
2018-06-12T10:06:22.818Z,2.50
2018-06-12T10:08:51.453Z,2.83
2018-06-12T10:11:20.184Z,3.00
2018-06-12T10:13:48.882Z,2.83
2018-06-12T10:16:17.614Z,2.70
2018-06-12T10:18:46.356Z,2.97
2018-06-12T10:21:15.022Z,2.20
2018-06-12T10:23:43.720Z,2.50
2018-06-12T10:26:12.479Z,2.30
2018-06-12T10:28:41.152Z,2.30
2018-06-12T10:31:09.807Z,3.17
2018-06-12T10:33:38.508Z,2.40
2018-06-12T10:36:07.204Z,2.30
2018-06-12T10:38:35.833Z,2.60
2018-06-12T10:41:04.536Z,2.10
2018-06-12T10:43:33.207Z,2.77
2018-06-12T10:46:01.953Z,2.77
2018-06-12T10:48:30.662Z,2.70
2018-06-12T10:50:59.331Z,2.83
2018-06-12T10:53:28.012Z,2.60
2018-06-12T10:55:56.690Z,2.43
2018-06-12T10:58:25.345Z,2.60
2018-06-12T11:00:54.109Z,2.00
2018-06-12T11:03:22.785Z,2.50
2018-06-12T11:05:51.460Z,2.47
2018-06-12T11:08:20.124Z,3.53
2018-06-12T11:10:48.858Z,3.00
2018-06-12T11:13:17.537Z,2.30
2018-06-12T11:15:46.214Z,2.60
2018-06-12T11:18:14.924Z,2.33
2018-06-12T11:20:43.697Z,2.83
2018-06-12T11:23:12.356Z,2.10
2018-06-12T11:25:41.283Z,3.00
2018-06-12T11:28:09.974Z,2.73
2018-06-12T11:30:38.607Z,2.20
2018-06-12T11:33:07.352Z,2.27
2018-06-12T11:35:35.952Z,2.53
2018-06-12T11:38:04.624Z,1.90
2018-06-12T11:40:33.292Z,2.80
2018-06-12T11:43:01.955Z,1.83
2018-06-12T11:45:30.658Z,2.00
2018-06-12T11:47:59.453Z,2.50
2018-06-12T11:50:28.104Z,1.90
2018-06-12T11:52:56.805Z,2.80
2018-06-12T11:55:26.074Z,2.50
2018-06-12T11:57:54.869Z,2.20
2018-06-12T12:00:24.747Z,2.43
2018-06-12T12:02:53.439Z,2.03
2018-06-12T12:05:22.167Z,2.53
2018-06-12T12:07:50.823Z,1.97
2018-06-12T12:10:19.437Z,2.17
2018-06-12T12:12:48.124Z,2.40
2018-06-12T12:15:16.815Z,2.57
2018-06-12T12:17:45.472Z,2.40
2018-06-12T12:20:14.161Z,2.13
2018-06-12T12:22:42.779Z,2.10
2018-06-12T12:25:11.746Z,2.13
2018-06-12T12:27:40.532Z,2.27
2018-06-12T12:30:09.407Z,2.10
2018-06-12T12:32:38.261Z,2.23
2018-06-12T12:35:06.942Z,2.47
2018-06-12T12:37:35.628Z,1.93
2018-06-12T12:40:04.446Z,2.40
2018-06-12T12:42:33.094Z,1.87
2018-06-12T12:45:01.732Z,2.20
2018-06-12T12:47:30.400Z,2.13
2018-06-12T12:49:59.019Z,2.53
2018-06-12T12:52:27.753Z,3.13
2018-06-12T12:54:56.402Z,2.07
2018-06-12T12:57:25.246Z,2.90
2018-06-12T12:59:54.024Z,2.23
2018-06-12T13:02:22.775Z,2.50
2018-06-12T13:04:51.559Z,2.23
2018-06-12T13:07:20.354Z,2.10
2018-06-12T13:09:49.069Z,2.10
2018-06-12T13:12:18.731Z,2.30
2018-06-12T13:14:47.411Z,2.00
2018-06-12T13:17:16.212Z,1.70
2018-06-12T13:19:44.979Z,2.33
2018-06-12T13:22:13.741Z,2.13
2018-06-12T13:24:42.500Z,1.90
2018-06-12T13:27:11.199Z,2.40
2018-06-12T13:29:40.078Z,2.20
2018-06-12T13:32:08.770Z,2.10
2018-06-12T13:34:37.592Z,2.00
2018-06-12T13:37:06.592Z,2.03
2018-06-12T13:39:35.342Z,2.77
2018-06-12T13:42:04.005Z,2.37
2018-06-12T13:44:32.716Z,2.07
2018-06-12T13:47:01.425Z,1.80
2018-06-12T13:49:30.128Z,2.30
2018-06-12T13:51:58.880Z,1.60
2018-06-12T13:54:27.615Z,3.00
2018-06-12T13:56:56.368Z,2.03
2018-06-12T13:59:25.227Z,2.07
2018-06-12T14:01:54.632Z,1.97
2018-06-12T14:04:23.779Z,2.10
2018-06-12T14:06:52.618Z,2.97
2018-06-12T14:09:21.435Z,2.07
2018-06-12T14:11:50.168Z,2.20
2018-06-12T14:14:18.939Z,2.50
2018-06-12T14:16:47.667Z,1.83
2018-06-12T14:19:16.355Z,2.20
2018-06-12T14:21:45.160Z,1.60
2018-06-12T14:24:13.888Z,2.13
2018-06-12T14:26:43.292Z,2.30
2018-06-12T14:29:12.038Z,49.73
2018-06-12T14:31:40.828Z,21.20
2018-06-12T14:34:09.515Z,25.10
2018-06-12T14:36:38.195Z,12.10
2018-06-12T14:39:08.364Z,7.47
2018-06-12T14:41:37.626Z,8.83
2018-06-12T14:44:07.026Z,19.97
2018-06-12T14:46:35.811Z,7.30
2018-06-12T14:49:04.623Z,4.87
2018-06-12T14:51:33.556Z,4.13
2018-06-12T14:54:02.319Z,3.33
2018-06-12T14:56:31.097Z,3.30
2018-06-12T14:58:59.742Z,3.43
2018-06-12T15:01:28.701Z,3.93
2018-06-12T15:03:58.249Z,3.97
2018-06-12T15:06:27.151Z,2.47
2018-06-12T15:08:55.969Z,3.43
2018-06-12T15:11:24.644Z,3.13
2018-06-12T15:13:53.328Z,2.77
2018-06-12T15:16:24.921Z,2.40
2018-06-12T15:18:53.686Z,2.53
2018-06-12T15:21:22.794Z,1.97
2018-06-12T15:23:51.658Z,2.07
2018-06-12T15:26:22.325Z,3.13
2018-06-12T15:28:51.092Z,3.80
2018-06-12T15:31:19.879Z,5.67
2018-06-12T15:33:50.348Z,24.93
2018-06-12T15:36:19.484Z,24.87
2018-06-12T15:38:48.317Z,18.60
2018-06-12T15:41:17.144Z,9.97
2018-06-12T15:43:45.896Z,15.83
2018-06-12T15:46:14.542Z,22.33
2018-06-12T15:48:43.228Z,5.60
2018-06-12T15:51:12.268Z,16.60
2018-06-12T15:53:41.264Z,19.80
2018-06-12T15:56:10.076Z,23.70
2018-06-12T15:58:38.751Z,15.90
2018-06-12T16:01:07.822Z,4.77
2018-06-12T16:03:36.487Z,7.33
2018-06-12T16:06:05.186Z,6.43
2018-06-12T16:08:33.885Z,3.77
2018-06-12T16:11:02.660Z,3.20
2018-06-12T16:13:31.441Z,3.77
2018-06-12T16:16:00.183Z,3.13
2018-06-12T16:18:28.976Z,3.70
2018-06-12T16:20:58.046Z,2.87
2018-06-12T16:23:27.324Z,2.27
2018-06-12T16:25:56.112Z,2.50
2018-06-12T16:28:24.992Z,2.83
2018-06-12T16:30:54.591Z,2.27
2018-06-12T16:33:23.402Z,2.20
2018-06-12T16:35:53.279Z,2.53
2018-06-12T16:38:22.042Z,2.67
2018-06-12T16:40:52.160Z,2.97
2018-06-12T16:43:21.090Z,3.03
2018-06-12T16:45:49.870Z,2.87
2018-06-12T16:48:18.734Z,2.67
2018-06-12T16:50:47.872Z,2.00
2018-06-12T16:53:16.689Z,2.50
2018-06-12T16:55:45.443Z,8.20
2018-06-12T16:58:14.348Z,13.00
2018-06-12T17:00:43.227Z,13.80
2018-06-12T17:03:12.173Z,7.53
2018-06-12T17:05:41.177Z,8.00
2018-06-12T17:08:10.095Z,19.87
2018-06-12T17:10:38.793Z,13.73
2018-06-12T17:13:07.550Z,14.93
2018-06-12T17:15:36.289Z,15.23
2018-06-12T17:18:05.143Z,13.53
2018-06-12T17:20:34.071Z,16.80
2018-06-12T17:23:02.847Z,10.30
2018-06-12T17:25:31.623Z,6.97
2018-06-12T17:28:03.563Z,10.00
2018-06-12T17:30:32.777Z,8.90
2018-06-12T17:33:01.744Z,8.50
2018-06-12T17:35:30.839Z,5.00
2018-06-12T17:37:59.521Z,3.53
2018-06-12T17:40:28.431Z,3.33
2018-06-12T17:42:57.952Z,2.40
2018-06-12T17:45:27.016Z,2.13
2018-06-12T17:47:55.698Z,2.37
2018-06-12T17:50:24.497Z,2.30
2018-06-12T17:52:54.048Z,2.33
2018-06-12T17:55:22.949Z,2.20
2018-06-12T17:57:51.731Z,2.77
2018-06-12T18:00:20.537Z,2.20
2018-06-12T18:02:49.262Z,3.10
2018-06-12T18:05:18.037Z,2.63
2018-06-12T18:07:46.760Z,3.20
2018-06-12T18:10:15.483Z,2.50
2018-06-12T18:12:44.155Z,2.20
2018-06-12T18:15:12.821Z,2.83
2018-06-12T18:17:41.586Z,2.47
2018-06-12T18:20:10.212Z,2.63
2018-06-12T18:22:38.899Z,2.20
2018-06-12T18:25:07.615Z,2.20
2018-06-12T18:27:36.427Z,2.40
2018-06-12T18:30:05.165Z,2.40
2018-06-12T18:32:33.903Z,2.20
2018-06-12T18:35:02.588Z,3.00
2018-06-12T18:37:31.873Z,2.27
2018-06-12T18:40:00.596Z,2.53
2018-06-12T18:42:29.494Z,2.30
2018-06-12T18:44:58.245Z,3.00
2018-06-12T18:47:27.056Z,2.63
2018-06-12T18:49:55.859Z,3.20
2018-06-12T18:52:24.695Z,3.50
2018-06-12T18:54:53.398Z,2.70
2018-06-12T18:57:22.067Z,3.13
2018-06-12T18:59:50.834Z,2.70
2018-06-12T19:02:19.575Z,3.87
2018-06-12T19:04:48.500Z,2.73
2018-06-12T19:07:17.308Z,2.83
2018-06-12T19:09:46.029Z,2.57
2018-06-12T19:12:14.673Z,2.70
2018-06-12T19:14:43.500Z,2.70
2018-06-12T19:17:12.175Z,2.97
2018-06-12T19:19:40.892Z,3.27
2018-06-12T19:22:09.630Z,3.10
2018-06-12T19:24:38.359Z,2.97
2018-06-12T19:27:07.037Z,2.57
2018-06-12T19:29:35.732Z,2.73
2018-06-12T19:32:04.412Z,2.70
2018-06-12T19:34:33.094Z,2.40
2018-06-12T19:37:01.724Z,2.53
2018-06-12T19:39:30.407Z,3.03
2018-06-12T19:41:59.232Z,2.33
2018-06-12T19:44:27.976Z,2.50
2018-06-12T19:46:56.732Z,2.93
2018-06-12T19:49:25.417Z,3.10
2018-06-12T19:51:54.182Z,2.40
2018-06-12T19:54:22.888Z,3.10
2018-06-12T19:56:51.544Z,2.97
2018-06-12T19:59:20.203Z,2.80
2018-06-12T20:01:49.025Z,3.30
2018-06-12T20:04:17.824Z,4.30
2018-06-12T20:06:46.595Z,11.80
2018-06-12T20:09:15.273Z,8.93
2018-06-12T20:11:44.046Z,4.77
2018-06-12T20:14:12.791Z,4.50
2018-06-12T20:16:41.470Z,3.40
2018-06-12T20:19:10.134Z,4.87
2018-06-12T20:21:38.896Z,5.00
2018-06-12T20:24:07.539Z,3.63
2018-06-12T20:26:36.257Z,3.07
2018-06-12T20:29:05.140Z,4.20
2018-06-12T20:31:33.803Z,3.30
2018-06-12T20:34:02.481Z,2.63
2018-06-12T20:36:31.210Z,2.60
2018-06-12T20:38:59.904Z,2.80
2018-06-12T20:41:29.134Z,2.97
2018-06-12T20:43:57.911Z,2.37
2018-06-12T20:46:26.572Z,2.97
2018-06-12T20:48:55.551Z,2.90
2018-06-12T20:51:25.364Z,3.50
2018-06-12T20:53:54.122Z,2.60
2018-06-12T20:56:23.160Z,3.10
2018-06-12T20:58:51.966Z,3.70
2018-06-12T21:01:20.843Z,2.90
2018-06-12T21:03:50.790Z,3.10
2018-06-12T21:06:26.135Z,2.80
2018-06-12T21:08:55.076Z,3.20
2018-06-12T21:11:23.872Z,3.07
2018-06-12T21:13:52.706Z,3.07
2018-06-12T21:16:22.248Z,3.93
2018-06-12T21:18:51.255Z,2.47
2018-06-12T21:21:20.019Z,2.87
2018-06-12T21:23:48.745Z,3.17
2018-06-12T21:26:17.478Z,2.73
2018-06-12T21:28:46.211Z,2.20
2018-06-12T21:31:14.997Z,2.33
2018-06-12T21:33:43.672Z,2.80
2018-06-12T21:36:12.343Z,2.60
2018-06-12T21:38:41.228Z,2.43
2018-06-12T21:41:10.158Z,2.70
2018-06-12T21:43:39.081Z,2.57
2018-06-12T21:46:07.900Z,2.10
2018-06-12T21:48:36.711Z,2.70
2018-06-12T21:51:05.413Z,2.30
2018-06-12T21:53:34.649Z,2.70
2018-06-12T21:56:03.545Z,2.57
2018-06-12T21:58:32.315Z,2.10
2018-06-12T22:01:01.055Z,3.20
2018-06-12T22:03:29.931Z,2.87
2018-06-12T22:05:58.695Z,3.20
2018-06-12T22:08:27.412Z,2.70
2018-06-12T22:10:59.327Z,2.50
2018-06-12T22:13:28.027Z,3.10
2018-06-12T22:15:56.697Z,3.10
2018-06-12T22:18:27.381Z,3.20
2018-06-12T22:20:56.564Z,3.07
2018-06-12T22:23:26.952Z,2.90
2018-06-12T22:25:55.846Z,3.47
2018-06-12T22:28:24.679Z,3.17
2018-06-12T22:30:53.380Z,3.40
2018-06-12T22:33:22.202Z,3.13
2018-06-12T22:35:50.842Z,3.50
2018-06-12T22:38:19.648Z,3.43
2018-06-12T22:40:48.298Z,2.90
2018-06-12T22:43:17.003Z,3.77
2018-06-12T22:45:45.780Z,3.73
2018-06-12T22:48:14.489Z,3.37
2018-06-12T22:50:43.187Z,3.50
2018-06-12T22:53:13.803Z,4.23
2018-06-12T22:55:42.427Z,4.77
2018-06-12T22:58:11.117Z,3.30
2018-06-12T23:00:39.812Z,3.20
2018-06-12T23:03:08.524Z,3.23
2018-06-12T23:05:37.238Z,4.30
2018-06-12T23:08:06.014Z,3.30
2018-06-12T23:10:34.713Z,3.03
2018-06-12T23:13:03.445Z,3.33
2018-06-12T23:15:32.175Z,2.97
2018-06-12T23:18:00.835Z,3.37
2018-06-12T23:20:45.623Z,3.57
2018-06-12T23:23:14.327Z,2.80
2018-06-12T23:25:43.018Z,3.73
2018-06-12T23:28:11.716Z,3.03
2018-06-12T23:30:40.379Z,2.93
2018-06-12T23:33:09.076Z,3.00
2018-06-12T23:35:37.796Z,3.30
2018-06-12T23:38:06.460Z,3.03
2018-06-12T23:40:35.116Z,3.27
2018-06-12T23:43:03.796Z,3.00
2018-06-12T23:45:32.468Z,3.10
2018-06-12T23:48:01.959Z,2.60
2018-06-12T23:50:30.639Z,2.83
2018-06-12T23:52:59.324Z,3.07
2018-06-12T23:55:28.072Z,2.80
2018-06-12T23:57:56.755Z,2.77
